createdAt,value
2019-03-11T00:00:38.223Z,99266.31
2019-03-11T00:03:08.542Z,99273.30
2019-03-11T00:05:38.857Z,99266.59
2019-03-11T00:08:09.058Z,99266.42
2019-03-11T00:10:39.293Z,99269.28
2019-03-11T00:13:09.541Z,99265.61
2019-03-11T00:15:40.195Z,99261.66
2019-03-11T00:18:10.471Z,99261.66
2019-03-11T00:20:41.228Z,99264.45
2019-03-11T00:23:11.511Z,99272.34
2019-03-11T00:25:42.501Z,99272.79
2019-03-11T00:28:12.866Z,99271.32
2019-03-11T00:30:44.161Z,99271.80
2019-03-11T00:33:14.389Z,99268.53
2019-03-11T00:35:44.707Z,99264.55
2019-03-11T00:38:16.781Z,99265.09
2019-03-11T00:40:47.436Z,99262.20
2019-03-11T00:43:17.738Z,99259.95
2019-03-11T00:45:49.438Z,99258.23
2019-03-11T00:48:20.000Z,99248.94
2019-03-11T00:50:50.321Z,99244.81
2019-03-11T00:53:21.566Z,99246.92
2019-03-11T00:55:52.911Z,99237.78
2019-03-11T00:58:24.778Z,99231.70
2019-03-11T01:00:55.744Z,99239.50
2019-03-11T01:03:26.043Z,99234.33
2019-03-11T01:05:56.841Z,99238.30
2019-03-11T01:08:29.120Z,99222.87
2019-03-11T01:10:59.926Z,99226.38
2019-03-11T01:13:30.207Z,99221.23
2019-03-11T01:16:00.965Z,99218.59
2019-03-11T01:18:31.158Z,99208.74
2019-03-11T01:21:01.979Z,99210.64
2019-03-11T01:23:32.321Z,99210.08
2019-03-11T01:26:03.703Z,99202.73
2019-03-11T01:28:33.957Z,99209.83
2019-03-11T01:31:04.225Z,99207.31
2019-03-11T01:33:34.855Z,99203.26
2019-03-11T01:36:05.625Z,99195.09
2019-03-11T01:38:35.913Z,99187.91
2019-03-11T01:41:07.054Z,99193.35
2019-03-11T01:43:37.237Z,99184.80
2019-03-11T01:46:07.874Z,99176.08
2019-03-11T01:48:38.474Z,99174.30
2019-03-11T01:51:08.814Z,99165.64
2019-03-11T01:53:39.090Z,99170.67
2019-03-11T01:56:10.759Z,99168.63
2019-03-11T01:58:41.818Z,99172.53
2019-03-11T02:01:13.435Z,99168.02
2019-03-11T02:03:43.689Z,99172.53
2019-03-11T02:06:14.350Z,99161.02
2019-03-11T02:08:44.674Z,99155.86
2019-03-11T02:11:15.301Z,99151.17
2019-03-11T02:13:45.863Z,99154.92
2019-03-11T02:16:16.150Z,99157.03
2019-03-11T02:18:46.880Z,99162.80
2019-03-11T02:21:17.163Z,99161.61
2019-03-11T02:23:48.546Z,99164.98
2019-03-11T02:26:18.950Z,99154.94
2019-03-11T02:28:50.020Z,99156.03
2019-03-11T02:31:20.538Z,99148.72
2019-03-11T02:33:50.810Z,99138.66
2019-03-11T02:36:21.115Z,99131.77
2019-03-11T02:38:51.811Z,99139.16
2019-03-11T02:41:22.567Z,99130.69
2019-03-11T02:43:53.339Z,99127.48
2019-03-11T02:46:23.634Z,99126.63
2019-03-11T02:48:53.928Z,99127.69
2019-03-11T02:51:24.247Z,99132.72
2019-03-11T02:53:54.626Z,99129.56
2019-03-11T02:56:24.938Z,99133.78
2019-03-11T02:58:55.156Z,99142.38
2019-03-11T03:01:44.017Z,99143.03
2019-03-11T03:04:33.781Z,99128.94
2019-03-11T03:07:04.071Z,99125.44
2019-03-11T03:09:34.340Z,99123.63
2019-03-11T03:12:04.668Z,99113.60
2019-03-11T03:14:34.944Z,99126.98
2019-03-11T03:19:37.007Z,99131.40
2019-03-11T03:22:08.323Z,99141.39
2019-03-11T03:24:38.621Z,99141.39
2019-03-11T03:27:09.398Z,99138.30
2019-03-11T03:29:40.008Z,99152.11
2019-03-11T03:32:11.390Z,99141.27
2019-03-11T03:34:41.627Z,99146.27
2019-03-11T03:37:12.475Z,99144.52
2019-03-11T03:39:43.047Z,99159.28
2019-03-11T03:42:13.904Z,99152.89
2019-03-11T03:45:14.420Z,99155.34
2019-03-11T03:47:45.253Z,99143.64
2019-03-11T03:50:15.511Z,99144.92
2019-03-11T03:52:45.801Z,99136.36
2019-03-11T03:55:16.358Z,99140.64
2019-03-11T03:57:46.655Z,99131.42
2019-03-11T04:00:17.798Z,99135.03
2019-03-11T04:02:48.150Z,99138.41
2019-03-11T04:05:18.414Z,99134.49
2019-03-11T04:07:49.390Z,99136.77
2019-03-11T04:10:19.692Z,99129.91
2019-03-11T04:12:50.110Z,99123.27
2019-03-11T04:15:20.408Z,99113.09
2019-03-11T04:17:50.739Z,99119.27
2019-03-11T04:20:21.390Z,99114.04
2019-03-11T04:22:52.476Z,99110.84
2019-03-11T04:25:22.791Z,99108.43
2019-03-11T04:27:53.974Z,99101.49
2019-03-11T04:30:24.301Z,99101.56
2019-03-11T04:32:54.558Z,99090.81
2019-03-11T04:35:25.087Z,99091.39
2019-03-11T04:37:55.738Z,99087.92
2019-03-11T04:40:26.678Z,99106.32
2019-03-11T04:42:57.583Z,99094.71
2019-03-11T04:45:27.811Z,99087.61
2019-03-11T04:47:58.150Z,99091.30
2019-03-11T04:50:29.008Z,99073.97
2019-03-11T04:52:59.302Z,99066.07
2019-03-11T04:55:29.514Z,99057.73
2019-03-11T04:58:00.502Z,99057.78
2019-03-11T05:00:30.806Z,99056.83
2019-03-11T05:03:01.451Z,99051.96
2019-03-11T05:05:31.737Z,99055.06
2019-03-11T05:08:02.620Z,99057.09
2019-03-11T05:10:32.926Z,99053.88
2019-03-11T05:13:03.233Z,99062.48
2019-03-11T05:15:33.569Z,99046.80
2019-03-11T05:18:03.958Z,99047.38
2019-03-11T05:20:35.516Z,99044.00
2019-03-11T05:23:07.054Z,99038.88
2019-03-11T05:25:37.304Z,99026.55
2019-03-11T05:28:07.884Z,99032.05
2019-03-11T05:30:38.073Z,99015.70
2019-03-11T05:33:08.724Z,99030.38
2019-03-11T05:35:39.345Z,99016.80
2019-03-11T05:38:09.676Z,99010.48
2019-03-11T05:40:40.306Z,99012.00
2019-03-11T05:43:11.034Z,99020.19
2019-03-11T05:45:42.360Z,98995.16
2019-03-11T05:48:12.686Z,99024.36
2019-03-11T05:50:43.243Z,99023.44
2019-03-11T05:53:13.826Z,99021.12
2019-03-11T05:55:44.170Z,99016.11
2019-03-11T05:58:14.346Z,99041.42
2019-03-11T06:00:44.666Z,99031.67
2019-03-11T06:03:14.958Z,99042.05
2019-03-11T06:05:45.210Z,99026.95
2019-03-11T06:08:21.429Z,99031.42
2019-03-11T06:10:51.985Z,99025.16
2019-03-11T06:13:22.242Z,99037.04
2019-03-11T06:15:52.841Z,99034.61
2019-03-11T06:18:47.483Z,99042.63
2019-03-11T06:21:32.499Z,99047.02
2019-03-11T06:24:02.782Z,99031.41
2019-03-11T06:26:33.870Z,99031.41
2019-03-11T06:29:06.159Z,99035.64
2019-03-11T06:31:36.775Z,99044.45
2019-03-11T06:34:06.971Z,99069.48
2019-03-11T06:36:37.833Z,99057.91
2019-03-11T06:39:08.910Z,99044.52
2019-03-11T06:41:39.510Z,99049.42
2019-03-11T06:44:09.773Z,99047.65
2019-03-11T06:46:40.351Z,99057.23
2019-03-11T06:49:10.530Z,99029.67
2019-03-11T06:51:41.414Z,99032.84
2019-03-11T06:54:12.048Z,99046.91
2019-03-11T06:56:42.271Z,99063.02
2019-03-11T06:59:15.264Z,99086.77
2019-03-11T07:01:46.097Z,99067.80
2019-03-11T07:04:16.269Z,99072.52
2019-03-11T07:06:47.455Z,99068.91
2019-03-11T07:09:18.221Z,99064.19
2019-03-11T07:11:50.089Z,99059.78
2019-03-11T07:14:20.319Z,99071.82
2019-03-11T07:16:51.261Z,99061.53
2019-03-11T07:19:21.959Z,99075.48
2019-03-11T07:21:53.431Z,99074.95
2019-03-11T07:24:23.671Z,99069.85
2019-03-11T07:26:54.571Z,99091.68
2019-03-11T07:29:25.062Z,99078.78
2019-03-11T07:31:55.387Z,99069.77
2019-03-11T07:34:26.054Z,99076.13
2019-03-11T07:36:56.681Z,99076.58
2019-03-11T07:39:27.623Z,99089.39
2019-03-11T07:41:58.139Z,99087.84
2019-03-11T07:44:28.421Z,99091.65
2019-03-11T07:46:58.702Z,99104.13
2019-03-11T07:49:29.247Z,99105.53
2019-03-11T07:52:02.568Z,99110.07
2019-03-11T07:54:35.730Z,99109.55
2019-03-11T07:57:04.302Z,99122.47
2019-03-11T07:59:35.371Z,99129.66
2019-03-11T08:02:05.685Z,99121.59
2019-03-11T08:04:35.930Z,99107.66
2019-03-11T08:07:06.155Z,99115.78
2019-03-11T08:09:38.378Z,99101.30
2019-03-11T08:12:08.831Z,99115.25
2019-03-11T08:14:39.077Z,99114.54
2019-03-11T08:17:09.370Z,99124.59
2019-03-11T08:19:39.964Z,99131.27
2019-03-11T08:22:10.621Z,99123.22
2019-03-11T08:24:40.919Z,99132.30
2019-03-11T08:27:11.573Z,99122.25
2019-03-11T08:29:41.851Z,99131.92
2019-03-11T08:32:12.939Z,99129.75
2019-03-11T08:34:43.115Z,99127.61
2019-03-11T08:37:13.722Z,99132.43
2019-03-11T08:39:43.970Z,99129.90
2019-03-11T08:42:15.480Z,99127.94
2019-03-11T08:44:45.762Z,99130.89
2019-03-11T08:47:16.333Z,99126.55
2019-03-11T08:49:46.601Z,99105.84
2019-03-11T08:52:16.878Z,99118.06
2019-03-11T08:54:47.511Z,99114.77
2019-03-11T08:57:17.836Z,99110.66
2019-03-11T08:59:48.777Z,99106.53
2019-03-11T09:02:19.398Z,99095.69
2019-03-11T09:04:49.759Z,99097.72
2019-03-11T09:07:21.067Z,99088.19
2019-03-11T09:09:51.341Z,99087.55
2019-03-11T09:12:21.926Z,99083.96
2019-03-11T09:14:52.218Z,99086.19
2019-03-11T09:17:22.792Z,99082.50
2019-03-11T09:19:53.042Z,99080.58
2019-03-11T09:22:23.765Z,99064.48
2019-03-11T09:24:53.939Z,99080.56
2019-03-11T09:27:24.185Z,99078.17
2019-03-11T09:29:54.445Z,99080.11
2019-03-11T09:32:25.042Z,99086.48
2019-03-11T09:34:55.305Z,99098.66
2019-03-11T09:37:25.580Z,99094.23
2019-03-11T09:39:56.322Z,99105.19
2019-03-11T09:42:27.633Z,99101.00
2019-03-11T09:44:57.971Z,99096.64
2019-03-11T09:47:28.526Z,99115.66
2019-03-11T09:49:58.823Z,99117.37
2019-03-11T09:52:30.206Z,99127.61
2019-03-11T09:55:00.673Z,99137.84
2019-03-11T09:57:31.259Z,99127.55
2019-03-11T10:00:02.499Z,99122.64
2019-03-11T10:02:33.065Z,99126.65
2019-03-11T10:05:03.778Z,99130.27
2019-03-11T10:07:34.496Z,99135.19
2019-03-11T10:10:05.929Z,99118.27
2019-03-11T10:12:36.551Z,99122.55
2019-03-11T10:15:09.079Z,99135.16
2019-03-11T10:17:39.372Z,99143.22
2019-03-11T10:20:10.986Z,99132.11
2019-03-11T10:22:41.887Z,99146.95
2019-03-11T10:25:12.410Z,99134.73
2019-03-11T10:27:42.726Z,99136.10
2019-03-11T10:30:14.718Z,99139.50
2019-03-11T10:32:45.423Z,99147.30
2019-03-11T10:35:33.216Z,99142.55
2019-03-11T10:37:49.667Z,99155.00
2019-03-11T10:40:21.371Z,99145.48
2019-03-11T10:42:51.934Z,99140.34
2019-03-11T10:45:31.266Z,99139.17
2019-03-11T10:47:54.773Z,99148.83
2019-03-11T10:50:25.788Z,99151.69
2019-03-11T10:52:56.433Z,99180.66
2019-03-11T10:55:26.702Z,99249.73
2019-03-11T10:57:58.320Z,99267.98
2019-03-11T11:00:28.970Z,99268.55
2019-03-11T11:02:59.326Z,99257.16
2019-03-11T11:05:29.929Z,99244.28
2019-03-11T11:08:00.638Z,99235.45
2019-03-11T11:10:30.890Z,99249.53
2019-03-11T11:13:01.219Z,99236.70
2019-03-11T11:15:31.472Z,99213.34
2019-03-11T11:18:03.768Z,99215.62
2019-03-11T11:20:33.949Z,99220.44
2019-03-11T11:23:04.199Z,99254.16
2019-03-11T11:25:36.893Z,99258.30
2019-03-11T11:28:07.315Z,99262.00
2019-03-11T11:30:37.587Z,99286.91
2019-03-11T11:33:08.150Z,99286.27
2019-03-11T11:35:39.259Z,99291.39
2019-03-11T11:38:10.364Z,99288.88
2019-03-11T11:40:41.755Z,99293.93
2019-03-11T11:43:13.666Z,99307.73
2019-03-11T11:45:44.035Z,99315.98
2019-03-11T11:48:15.376Z,99311.67
2019-03-11T11:50:46.053Z,99301.73
2019-03-11T11:53:16.817Z,99312.66
2019-03-11T11:55:57.185Z,99311.22
2019-03-11T11:58:19.736Z,99306.86
2019-03-11T12:00:51.270Z,99320.67
2019-03-11T12:03:21.974Z,99316.65
2019-03-11T12:05:52.285Z,99324.45
2019-03-11T12:08:22.601Z,99321.97
2019-03-11T12:10:52.826Z,99337.31
2019-03-11T12:13:23.251Z,99329.27
2019-03-11T12:15:53.502Z,99332.33
2019-03-11T12:18:24.672Z,99339.46
2019-03-11T12:20:55.725Z,99332.05
2019-03-11T12:23:26.674Z,99327.02
2019-03-11T12:25:56.922Z,99345.04
2019-03-11T12:28:27.142Z,99340.93
2019-03-11T12:30:57.497Z,99351.03
2019-03-11T12:33:28.377Z,99354.66
2019-03-11T12:35:58.652Z,99352.52
2019-03-11T12:38:29.082Z,99346.62
2019-03-11T12:41:00.977Z,99356.38
2019-03-11T12:43:31.446Z,99360.09
2019-03-11T12:46:02.445Z,99357.06
2019-03-11T12:48:32.660Z,99353.05
2019-03-11T12:51:02.858Z,99371.98
2019-03-11T12:53:33.484Z,99345.91
2019-03-11T12:56:03.686Z,99352.30
2019-03-11T12:58:41.406Z,99348.29
2019-03-11T13:01:06.342Z,99368.08
2019-03-11T13:03:36.971Z,99358.80
2019-03-11T13:06:07.486Z,99357.72
2019-03-11T13:08:38.131Z,99365.33
2019-03-11T13:11:08.748Z,99357.66
2019-03-11T13:13:38.990Z,99351.09
2019-03-11T13:16:09.316Z,99346.24
2019-03-11T13:18:44.341Z,99361.28
2019-03-11T13:21:34.554Z,99361.84
2019-03-11T13:24:04.852Z,99364.22
2019-03-11T13:26:35.192Z,99370.69
2019-03-11T13:29:06.229Z,99369.08
2019-03-11T13:31:36.864Z,99375.56
2019-03-11T13:34:07.358Z,99368.03
2019-03-11T13:36:38.811Z,99372.41
2019-03-11T13:39:11.196Z,99373.36
2019-03-11T13:41:41.529Z,99374.34
2019-03-11T13:44:11.823Z,99371.33
2019-03-11T13:46:42.023Z,99363.32
2019-03-11T13:49:12.377Z,99366.63
2019-03-11T13:51:43.351Z,99375.41
2019-03-11T13:54:14.471Z,99372.52
2019-03-11T13:56:45.135Z,99374.16
2019-03-11T13:59:15.707Z,99378.88
2019-03-11T14:01:46.964Z,99390.74
2019-03-11T14:04:17.378Z,99390.59
2019-03-11T14:06:47.958Z,99394.17
2019-03-11T14:09:18.282Z,99427.09
2019-03-11T14:11:48.918Z,99410.74
2019-03-11T14:14:19.552Z,99413.79
2019-03-11T14:16:50.001Z,99448.71
2019-03-11T14:19:20.313Z,99435.41
2019-03-11T14:21:51.138Z,99438.81
2019-03-11T14:24:21.535Z,99454.12
2019-03-11T14:26:52.091Z,99462.55
2019-03-11T14:29:22.613Z,99455.08
2019-03-11T14:31:53.136Z,99451.92
2019-03-11T14:34:24.722Z,99445.66
2019-03-11T14:36:56.087Z,99451.61
2019-03-11T14:39:27.105Z,99448.20
2019-03-11T14:41:57.703Z,99448.41
2019-03-11T14:44:28.571Z,99449.57
2019-03-11T14:47:00.223Z,99449.57
2019-03-11T14:49:31.161Z,99439.33
2019-03-11T14:52:02.069Z,99451.14
2019-03-11T14:54:33.043Z,99447.83
2019-03-11T14:57:03.518Z,99460.27
2019-03-11T14:59:34.511Z,99469.42
2019-03-11T15:02:04.776Z,99474.09
2019-03-11T15:04:35.391Z,99460.25
2019-03-11T15:07:05.800Z,99457.69
2019-03-11T15:09:36.468Z,99442.88
2019-03-11T15:12:06.718Z,99440.62
2019-03-11T15:14:37.375Z,99434.77
2019-03-11T15:17:08.159Z,99448.03
2019-03-11T15:19:39.534Z,99440.81
2019-03-11T15:22:10.220Z,99444.05
2019-03-11T15:24:40.814Z,99452.80
2019-03-11T15:27:11.205Z,99456.30
2019-03-11T15:29:41.393Z,99450.71
2019-03-11T15:32:12.233Z,99451.45
2019-03-11T15:34:42.573Z,99437.50
2019-03-11T15:37:13.372Z,99445.49
2019-03-11T15:39:45.458Z,99450.64
2019-03-11T15:42:16.543Z,99433.64
2019-03-11T15:44:47.733Z,99419.75
2019-03-11T15:47:18.891Z,99422.75
2019-03-11T15:49:50.130Z,99416.85
2019-03-11T15:52:20.438Z,99425.30
2019-03-11T15:54:51.274Z,99421.09
2019-03-11T15:57:22.506Z,99410.53
2019-03-11T15:59:53.130Z,99416.75
2019-03-11T16:02:24.200Z,99416.70
2019-03-11T16:04:55.418Z,99437.14
2019-03-11T16:07:26.417Z,99439.33
2019-03-11T16:09:56.910Z,99431.08
2019-03-11T16:12:27.540Z,99431.67
2019-03-11T16:14:57.818Z,99435.86
2019-03-11T16:17:28.491Z,99448.33
2019-03-11T16:19:59.335Z,99444.55
2019-03-11T16:22:31.194Z,99440.87
2019-03-11T16:25:02.048Z,99440.98
2019-03-11T16:27:32.793Z,99452.80
2019-03-11T16:30:03.002Z,99462.81
2019-03-11T16:32:37.103Z,99458.77
2019-03-11T16:35:06.626Z,99467.42
2019-03-11T16:37:37.236Z,99483.02
2019-03-11T16:40:09.254Z,99479.59
2019-03-11T16:42:41.789Z,99493.86
2019-03-11T16:45:12.492Z,99481.87
2019-03-11T16:47:43.900Z,99481.87
2019-03-11T16:50:15.665Z,99501.25
2019-03-11T16:52:46.259Z,99504.18
2019-03-11T16:55:18.764Z,99508.18
2019-03-11T16:57:49.085Z,99520.19
2019-03-11T17:00:22.295Z,99526.95
2019-03-11T17:02:52.583Z,99532.17
2019-03-11T17:05:23.185Z,99524.08
2019-03-11T17:07:53.501Z,99527.06
2019-03-11T17:10:25.360Z,99527.62
2019-03-11T17:12:55.921Z,99535.16
2019-03-11T17:15:26.200Z,99535.48
2019-03-11T17:20:37.346Z,99537.80
2019-03-11T17:23:07.672Z,99541.53
2019-03-11T17:25:38.292Z,99552.80
2019-03-11T17:28:08.697Z,99565.83
2019-03-11T17:30:38.955Z,99566.30
2019-03-11T17:33:09.791Z,99573.73
2019-03-11T17:35:40.082Z,99573.73
2019-03-11T17:38:10.479Z,99579.22
2019-03-11T17:40:41.582Z,99576.84
2019-03-11T17:43:12.895Z,99580.53
2019-03-11T17:45:43.119Z,99580.95
2019-03-11T17:48:13.784Z,99586.64
2019-03-11T17:50:44.097Z,99583.66
2019-03-11T17:53:19.851Z,99594.20
2019-03-11T17:55:46.529Z,99595.37
2019-03-11T17:58:17.133Z,99598.15
2019-03-11T18:00:55.401Z,99599.19
2019-03-11T18:03:20.323Z,99602.30
2019-03-11T18:05:50.554Z,99603.09
2019-03-11T18:08:20.849Z,99608.41
2019-03-11T18:10:53.107Z,99613.92
2019-03-11T18:13:26.290Z,99615.72
2019-03-11T18:15:56.589Z,99619.47
2019-03-11T18:18:33.140Z,99617.34
2019-03-11T18:21:00.032Z,99624.81
2019-03-11T18:23:30.398Z,99626.09
2019-03-11T18:26:00.801Z,99628.56
2019-03-11T18:28:31.034Z,99638.08
2019-03-11T18:31:01.823Z,99643.16
2019-03-11T18:33:32.038Z,99646.91
2019-03-11T18:36:03.949Z,99652.61
2019-03-11T18:38:34.625Z,99663.25
2019-03-11T18:41:06.976Z,99665.48
2019-03-11T18:43:42.630Z,99663.05
2019-03-11T18:46:10.794Z,99663.94
2019-03-11T18:48:41.343Z,99655.23
2019-03-11T18:51:11.718Z,99664.28
2019-03-11T18:53:42.934Z,99663.81
2019-03-11T18:56:13.215Z,99667.61
2019-03-11T18:58:45.526Z,99668.09
2019-03-11T19:01:20.308Z,99675.10
2019-03-11T19:03:50.905Z,99667.34
2019-03-11T19:06:21.828Z,99665.16
2019-03-11T19:08:52.100Z,99665.89
2019-03-11T19:11:22.791Z,99663.73
2019-03-11T19:13:53.527Z,99674.08
2019-03-11T19:16:28.494Z,99674.02
2019-03-11T19:18:59.506Z,99674.73
2019-03-11T19:21:30.031Z,99676.47
2019-03-11T19:24:01.326Z,99686.43
2019-03-11T19:26:32.999Z,99663.82
2019-03-11T19:29:04.173Z,99663.66
2019-03-11T19:31:35.734Z,99672.41
2019-03-11T19:34:06.072Z,99665.66
2019-03-11T19:36:37.304Z,99659.97
2019-03-11T19:39:14.064Z,99674.22
2019-03-11T19:41:44.614Z,99684.45
2019-03-11T19:44:14.973Z,99668.58
2019-03-11T19:46:47.503Z,99670.92
2019-03-11T19:49:19.123Z,99679.59
2019-03-11T19:51:49.611Z,99681.72
2019-03-11T19:54:20.943Z,99680.98
2019-03-11T19:56:52.136Z,99668.78
2019-03-11T19:59:23.111Z,99679.94
2019-03-11T20:01:55.309Z,99679.44
2019-03-11T20:04:25.621Z,99683.21
2019-03-11T20:06:56.446Z,99685.27
2019-03-11T20:09:27.690Z,99688.95
2019-03-11T20:11:57.982Z,99690.47
2019-03-11T20:14:30.291Z,99688.29
2019-03-11T20:17:02.997Z,99691.67
2019-03-11T20:19:33.722Z,99698.68
2019-03-11T20:22:04.387Z,99683.69
2019-03-11T20:24:35.222Z,99697.08
2019-03-11T20:27:05.768Z,99700.44
2019-03-11T20:29:40.753Z,99696.05
2019-03-11T20:32:12.319Z,99700.71
2019-03-11T20:34:44.635Z,99698.34
2019-03-11T20:37:14.952Z,99703.74
2019-03-11T20:39:46.628Z,99714.33
2019-03-11T20:42:18.195Z,99710.43
2019-03-11T20:44:51.297Z,99710.01
2019-03-11T20:47:23.858Z,99715.92
2019-03-11T20:49:57.583Z,99710.79
2019-03-11T20:52:28.763Z,99710.35
2019-03-11T20:55:00.431Z,99707.59
2019-03-11T20:57:32.500Z,99708.64
2019-03-11T21:00:03.261Z,99715.06
2019-03-11T21:02:37.862Z,99721.01
2019-03-11T21:05:10.111Z,99723.80
2019-03-11T21:07:42.421Z,99724.13
2019-03-11T21:10:14.428Z,99722.34
2019-03-11T21:12:45.088Z,99716.85
2019-03-11T21:15:18.955Z,99720.36
2019-03-11T21:17:50.584Z,99721.99
2019-03-11T21:20:21.193Z,99717.86
2019-03-11T21:22:51.965Z,99718.30
2019-03-11T21:25:22.394Z,99721.89
2019-03-11T21:27:54.089Z,99726.48
2019-03-11T21:30:25.207Z,99729.23
2019-03-11T21:32:56.329Z,99727.20
2019-03-11T21:35:27.850Z,99733.70
2019-03-11T21:37:59.305Z,99728.81
2019-03-11T21:40:30.451Z,99733.50
2019-03-11T21:43:00.922Z,99729.91
2019-03-11T21:45:34.794Z,99733.84
2019-03-11T21:48:06.426Z,99727.08
2019-03-11T21:50:36.727Z,99733.55
2019-03-11T21:53:08.739Z,99738.00
2019-03-11T21:55:39.053Z,99732.43
2019-03-11T21:58:13.569Z,99733.72
2019-03-11T22:00:44.491Z,99736.48
2019-03-11T22:03:15.171Z,99732.48
2019-03-11T22:05:48.177Z,99721.08
2019-03-11T22:08:18.857Z,99724.51
2019-03-11T22:10:49.522Z,99727.09
2019-03-11T22:13:19.816Z,99724.44
2019-03-11T22:15:52.390Z,99719.83
2019-03-11T22:18:23.563Z,99721.01
2019-03-11T22:20:54.514Z,99733.59
2019-03-11T22:23:26.182Z,99729.19
2019-03-11T22:25:57.625Z,99736.39
2019-03-11T22:28:27.903Z,99739.83
2019-03-11T22:30:58.447Z,99738.44
2019-03-11T22:33:28.778Z,99746.14
2019-03-11T22:35:59.028Z,99742.45
2019-03-11T22:38:31.546Z,99747.91
2019-03-11T22:41:02.233Z,99749.20
2019-03-11T22:43:34.386Z,99750.77
2019-03-11T22:46:04.608Z,99760.31
2019-03-11T22:48:34.912Z,99754.08
2019-03-11T22:51:05.170Z,99755.86
2019-03-11T22:53:35.800Z,99755.80
2019-03-11T22:56:07.147Z,99754.45
2019-03-11T22:58:38.351Z,99762.09
2019-03-11T23:01:10.466Z,99764.64
2019-03-11T23:03:50.372Z,99764.54
2019-03-11T23:06:14.184Z,99758.63
2019-03-11T23:08:44.916Z,99767.09
2019-03-11T23:11:17.898Z,99759.26
2019-03-11T23:13:48.193Z,99770.69
2019-03-11T23:16:19.769Z,99771.58
2019-03-11T23:18:51.154Z,99763.05
2019-03-11T23:21:22.065Z,99768.89
2019-03-11T23:23:58.430Z,99774.34
2019-03-11T23:26:28.943Z,99771.34
2019-03-11T23:28:59.686Z,99774.23
2019-03-11T23:31:31.047Z,99769.20
2019-03-11T23:34:02.392Z,99765.00
2019-03-11T23:36:33.231Z,99764.52
2019-03-11T23:39:05.296Z,99772.46
2019-03-11T23:41:37.770Z,99771.20
2019-03-11T23:44:08.136Z,99773.17
2019-03-11T23:46:38.751Z,99779.06
2019-03-11T23:49:13.417Z,99782.77
2019-03-11T23:51:44.844Z,99780.12
2019-03-11T23:54:15.189Z,99778.84
2019-03-11T23:56:45.455Z,99783.45
2019-03-11T23:59:16.594Z,99775.43
